createdAt,value
2022-11-14T00:00:16.079Z,100470.19
2022-11-14T00:01:20.389Z,100473.69
2022-11-14T00:02:24.425Z,100476.41
2022-11-14T00:03:30.570Z,100472.06
2022-11-14T00:04:37.024Z,100477.44
2022-11-14T00:05:49.747Z,100469.34
2022-11-14T00:06:54.407Z,100475.47
2022-11-14T00:07:59.386Z,100471.03
2022-11-14T00:09:05.902Z,100474.63
2022-11-14T00:10:16.870Z,100472.00
2022-11-14T00:11:21.690Z,100471.22
2022-11-14T00:12:27.269Z,100472.06
2022-11-14T00:13:34.557Z,100470.41
2022-11-14T00:14:38.857Z,100474.84
2022-11-14T00:15:43.181Z,100472.22
2022-11-14T00:16:47.896Z,100465.16
2022-11-14T00:17:51.457Z,100467.78
2022-11-14T00:18:55.591Z,100468.78
2022-11-14T00:20:00.756Z,100463.56
2022-11-14T00:21:04.595Z,100469.63
2022-11-14T00:22:08.955Z,100463.47
2022-11-14T00:23:18.253Z,100461.75
2022-11-14T00:24:22.086Z,100459.97
2022-11-14T00:25:36.051Z,100462.53
2022-11-14T00:26:40.592Z,100459.06
2022-11-14T00:27:44.588Z,100460.72
2022-11-14T00:28:49.249Z,100456.53
2022-11-14T00:29:53.211Z,100458.19
2022-11-14T00:30:56.723Z,100462.56
2022-11-14T00:32:00.222Z,100452.88
2022-11-14T00:33:04.113Z,100457.19
2022-11-14T00:34:08.894Z,100455.44
2022-11-14T00:35:12.438Z,100456.41
2022-11-14T00:36:15.963Z,100454.47
2022-11-14T00:37:19.414Z,100456.25
2022-11-14T00:38:24.422Z,100452.63
2022-11-14T00:39:28.879Z,100459.78
2022-11-14T00:40:32.652Z,100452.63
2022-11-14T00:41:36.514Z,100457.13
2022-11-14T00:42:40.536Z,100454.47
2022-11-14T00:43:45.212Z,100450.84
2022-11-14T00:44:49.777Z,100456.19
2022-11-14T00:45:53.683Z,100458.06
2022-11-14T00:46:59.240Z,100455.50
2022-11-14T00:48:03.860Z,100457.53
2022-11-14T00:49:08.359Z,100448.75
2022-11-14T00:50:13.033Z,100449.63
2022-11-14T00:51:16.876Z,100449.91
2022-11-14T00:52:21.665Z,100456.94
2022-11-14T00:53:26.318Z,100446.69
2022-11-14T00:54:31.917Z,100451.94
2022-11-14T00:55:41.702Z,100449.31
2022-11-14T00:56:46.716Z,100454.69
2022-11-14T00:57:51.951Z,100449.53
2022-11-14T00:58:55.545Z,100446.81
2022-11-14T01:00:04.235Z,100451.13
2022-11-14T01:01:10.030Z,100444.97
2022-11-14T01:02:15.093Z,100444.03
2022-11-14T01:03:19.918Z,100452.78
2022-11-14T01:04:30.667Z,100447.56
2022-11-14T01:05:44.809Z,100446.69
2022-11-14T01:06:51.504Z,100449.31
2022-11-14T01:08:01.056Z,100439.69
2022-11-14T01:09:11.255Z,100445.97
2022-11-14T01:10:17.516Z,100445.88
2022-11-14T01:11:22.832Z,100443.25
2022-11-14T01:12:26.344Z,100438.88
2022-11-14T01:13:36.460Z,100438.09
2022-11-14T01:14:41.603Z,100433.66
2022-11-14T01:15:50.126Z,100429.41
2022-11-14T01:16:54.177Z,100435.91
2022-11-14T01:17:58.362Z,100438.44
2022-11-14T01:19:04.337Z,100435.78
2022-11-14T01:20:15.482Z,100444.63
2022-11-14T01:21:22.620Z,100441.91
2022-11-14T01:22:26.747Z,100442.06
2022-11-14T01:23:30.332Z,100440.28
2022-11-14T01:24:34.422Z,100442.00
2022-11-14T01:25:40.787Z,100448.84
2022-11-14T01:26:45.771Z,100434.91
2022-11-14T01:27:49.591Z,100436.59
2022-11-14T01:28:53.746Z,100430.41
2022-11-14T01:29:57.684Z,100432.25
2022-11-14T01:31:16.295Z,100437.53
2022-11-14T01:32:19.958Z,100437.47
2022-11-14T01:33:23.533Z,100437.41
2022-11-14T01:34:27.625Z,100427.81
2022-11-14T01:35:33.539Z,100430.47
2022-11-14T01:36:38.404Z,100430.41
2022-11-14T01:37:42.148Z,100432.25
2022-11-14T01:38:46.624Z,100429.72
2022-11-14T01:39:50.143Z,100426.22
2022-11-14T01:40:53.932Z,100426.13
2022-11-14T01:41:58.704Z,100420.75
2022-11-14T01:43:17.731Z,100419.13
2022-11-14T01:44:43.118Z,100416.72
2022-11-14T01:45:59.663Z,100418.34
2022-11-14T01:47:03.697Z,100411.19
2022-11-14T01:48:25.195Z,100416.63
2022-11-14T01:49:42.601Z,100419.34
2022-11-14T01:50:51.933Z,100416.56
2022-11-14T01:52:23.200Z,100414.59
2022-11-14T01:53:28.463Z,100420.63
2022-11-14T01:54:41.545Z,100418.75
2022-11-14T01:55:45.902Z,100419.59
2022-11-14T01:57:02.569Z,100418.03
2022-11-14T01:58:06.909Z,100418.91
2022-11-14T01:59:16.072Z,100417.91
2022-11-14T02:00:19.679Z,100423.38
2022-11-14T02:01:26.548Z,100427.75
2022-11-14T02:02:35.693Z,100417.28
2022-11-14T02:03:43.532Z,100414.06
2022-11-14T02:04:55.764Z,100414.06
2022-11-14T02:06:03.290Z,100410.72
2022-11-14T02:07:08.568Z,100416.84
2022-11-14T02:08:16.858Z,100409.91
2022-11-14T02:09:20.488Z,100412.72
2022-11-14T02:10:27.302Z,100409.06
2022-11-14T02:11:37.168Z,100405.50
2022-11-14T02:12:41.344Z,100408.00
2022-11-14T02:13:45.355Z,100405.59
2022-11-14T02:14:55.444Z,100409.97
2022-11-14T02:15:59.182Z,100398.72
2022-11-14T02:17:27.884Z,100397.72
2022-11-14T02:18:26.999Z,100401.16
2022-11-14T02:19:52.084Z,100404.72
2022-11-14T02:20:55.616Z,100403.16
2022-11-14T02:21:59.218Z,100401.16
2022-11-14T02:23:06.071Z,100394.94
2022-11-14T02:24:12.994Z,100395.03
2022-11-14T02:25:19.732Z,100396.88
2022-11-14T02:26:23.939Z,100404.00
2022-11-14T02:27:28.062Z,100394.28
2022-11-14T02:28:31.953Z,100399.59
2022-11-14T02:29:36.735Z,100395.16
2022-11-14T02:30:41.252Z,100395.03
2022-11-14T02:31:44.741Z,100393.19
2022-11-14T02:34:25.175Z,100385.94
2022-11-14T02:35:30.476Z,100390.34
2022-11-14T02:36:35.416Z,100391.28
2022-11-14T02:37:40.874Z,100385.94
2022-11-14T02:38:44.512Z,100384.13
2022-11-14T02:39:48.472Z,100381.44
2022-11-14T02:40:51.975Z,100383.97
2022-11-14T02:41:55.846Z,100385.00
2022-11-14T02:42:59.612Z,100381.41
2022-11-14T02:44:03.363Z,100379.47
2022-11-14T02:45:08.035Z,100374.13
2022-11-14T02:46:11.843Z,100378.63
2022-11-14T02:47:15.592Z,100392.69
2022-11-14T02:48:19.458Z,100387.31
2022-11-14T02:49:22.942Z,100379.47
2022-11-14T02:50:26.551Z,100383.97
2022-11-14T02:51:30.121Z,100378.13
2022-11-14T02:52:34.050Z,100381.81
2022-11-14T02:53:37.575Z,100382.88
2022-11-14T02:54:41.097Z,100381.94
2022-11-14T02:55:44.592Z,100388.00
2022-11-14T02:56:48.657Z,100387.16
2022-11-14T02:57:52.321Z,100382.63
2022-11-14T02:58:56.002Z,100378.44
2022-11-14T02:59:59.501Z,100381.81
2022-11-14T04:12:38.080Z,100341.78
2022-11-14T04:13:41.895Z,100339.97
2022-11-14T04:14:45.590Z,100345.97
2022-11-14T04:15:59.219Z,100345.91
2022-11-14T04:17:02.812Z,100348.66
2022-11-14T04:18:06.609Z,100341.59
2022-11-14T04:19:10.408Z,100342.41
2022-11-14T04:20:15.513Z,100338.84
2022-11-14T04:21:19.007Z,100340.59
2022-11-14T04:22:22.759Z,100337.78
2022-11-14T04:23:26.580Z,100333.25
2022-11-14T04:24:30.334Z,100334.28
2022-11-14T04:25:34.020Z,100344.16
2022-11-14T04:26:37.504Z,100338.78
2022-11-14T04:27:41.103Z,100344.19
2022-11-14T04:28:44.900Z,100346.78
2022-11-14T04:29:48.623Z,100344.47
2022-11-14T04:30:52.121Z,100338.09
2022-11-14T04:31:55.619Z,100339.81
2022-11-14T04:32:59.617Z,100338.03
2022-11-14T04:34:03.432Z,100337.19
2022-11-14T04:35:07.471Z,100333.69
2022-11-14T04:36:11.170Z,100330.94
2022-11-14T04:37:14.794Z,100342.22
2022-11-14T04:38:18.332Z,100341.50
2022-11-14T04:39:22.119Z,100336.31
2022-11-14T04:40:25.835Z,100332.94
2022-11-14T04:41:29.638Z,100342.66
2022-11-14T04:42:33.564Z,100332.25
2022-11-14T04:43:38.748Z,100325.44
2022-11-14T04:44:43.215Z,100325.56
2022-11-14T04:45:47.203Z,100329.94
2022-11-14T04:46:51.873Z,100329.78
2022-11-14T04:47:56.016Z,100337.66
2022-11-14T04:49:00.336Z,100335.91
2022-11-14T04:50:05.972Z,100332.66
2022-11-14T04:51:11.267Z,100330.09
2022-11-14T04:52:15.229Z,100337.06
2022-11-14T04:53:19.138Z,100333.44
2022-11-14T04:54:26.856Z,100336.16
2022-11-14T04:55:31.528Z,100335.94
2022-11-14T04:56:36.439Z,100329.72
2022-11-14T04:57:40.080Z,100334.97
2022-11-14T04:58:43.873Z,100330.63
2022-11-14T04:59:48.366Z,100326.22
2022-11-14T05:00:52.452Z,100335.84
2022-11-14T05:01:56.618Z,100335.75
2022-11-14T05:03:02.316Z,100331.50
2022-11-14T05:04:06.802Z,100334.22
2022-11-14T05:05:11.501Z,100332.38
2022-11-14T05:06:17.019Z,100327.84
2022-11-14T05:07:25.144Z,100331.41
2022-11-14T05:08:29.486Z,100327.69
2022-11-14T05:09:33.409Z,100322.47
2022-11-14T05:10:37.366Z,100327.59
2022-11-14T05:11:41.428Z,100323.97
2022-11-14T05:12:46.370Z,100320.34
2022-11-14T05:13:50.797Z,100322.72
2022-11-14T05:14:55.159Z,100324.34
2022-11-14T05:16:02.065Z,100326.06
2022-11-14T05:17:09.188Z,100319.78
2022-11-14T05:18:14.570Z,100325.81
2022-11-14T05:19:18.375Z,100322.31
2022-11-14T05:20:22.158Z,100327.38
2022-11-14T05:21:26.317Z,100319.66
2022-11-14T05:22:33.844Z,100316.94
2022-11-14T05:23:37.343Z,100316.16
2022-11-14T05:24:40.927Z,100315.22
2022-11-14T05:25:44.496Z,100308.28
2022-11-14T05:26:48.023Z,100300.47
2022-11-14T05:27:52.264Z,100300.72
2022-11-14T05:28:55.938Z,100301.72
2022-11-14T05:29:59.817Z,100297.59
2022-11-14T05:31:21.626Z,100304.75
2022-11-14T05:32:25.209Z,100302.13
2022-11-14T05:33:29.683Z,100310.19
2022-11-14T05:34:33.670Z,100309.34
2022-11-14T05:35:37.269Z,100314.75
2022-11-14T05:36:40.805Z,100309.59
2022-11-14T05:37:44.355Z,100320.94
2022-11-14T05:38:48.100Z,100315.63
2022-11-14T05:39:51.781Z,100322.63
2022-11-14T05:40:55.386Z,100325.25
2022-11-14T05:41:59.066Z,100325.19
2022-11-14T05:43:02.525Z,100320.78
2022-11-14T05:44:06.705Z,100325.50
2022-11-14T05:45:12.832Z,100328.25
2022-11-14T05:46:17.207Z,100321.38
2022-11-14T05:47:21.323Z,100320.38
2022-11-14T05:48:24.834Z,100320.38
2022-11-14T05:49:28.550Z,100313.53
2022-11-14T05:50:32.209Z,100316.22
2022-11-14T05:51:35.762Z,100316.22
2022-11-14T05:52:39.307Z,100315.34
2022-11-14T05:53:42.849Z,100316.41
2022-11-14T05:54:49.954Z,100315.34
2022-11-14T05:55:54.045Z,100312.69
2022-11-14T05:56:57.866Z,100310.13
2022-11-14T05:58:01.710Z,100307.41
2022-11-14T05:59:05.330Z,100303.88
2022-11-14T06:00:11.134Z,100313.63
2022-11-14T06:01:18.567Z,100317.88
2022-11-14T06:02:22.369Z,100323.16
2022-11-14T06:03:26.005Z,100324.09
2022-11-14T06:04:29.976Z,100324.31
2022-11-14T06:05:36.304Z,100321.75
2022-11-14T06:06:41.748Z,100323.63
2022-11-14T06:07:50.348Z,100324.56
2022-11-14T06:08:54.291Z,100324.41
2022-11-14T06:09:58.430Z,100322.69
2022-11-14T06:11:06.044Z,100318.41
2022-11-14T06:12:10.260Z,100323.53
2022-11-14T06:13:14.069Z,100327.19
2022-11-14T06:14:17.828Z,100326.47
2022-11-14T06:15:21.928Z,100324.63
2022-11-14T06:16:26.084Z,100321.97
2022-11-14T06:17:29.846Z,100327.41
2022-11-14T06:18:34.500Z,100322.91
2022-11-14T06:19:38.089Z,100324.69
2022-11-14T06:20:42.343Z,100327.50
2022-11-14T06:21:46.880Z,100317.28
2022-11-14T06:22:54.568Z,100320.44
2022-11-14T06:23:58.034Z,100324.78
2022-11-14T06:25:10.071Z,100329.03
2022-11-14T06:26:24.792Z,100328.97
2022-11-14T06:27:28.483Z,100334.09
2022-11-14T06:28:33.044Z,100339.41
2022-11-14T06:29:36.802Z,100339.31
2022-11-14T06:30:41.585Z,100335.88
2022-11-14T06:31:45.108Z,100330.34
2022-11-14T06:32:48.900Z,100336.47
2022-11-14T06:33:53.316Z,100336.47
2022-11-14T06:34:57.208Z,100338.31
2022-11-14T06:36:04.058Z,100334.81
2022-11-14T06:37:07.562Z,100335.69
2022-11-14T06:38:11.277Z,100337.34
2022-11-14T06:39:15.383Z,100331.09
2022-11-14T06:40:23.997Z,100330.22
2022-11-14T06:41:31.496Z,100334.75
2022-11-14T06:42:37.382Z,100331.25
2022-11-14T06:43:54.301Z,100325.88
2022-11-14T06:44:59.675Z,100332.06
2022-11-14T06:46:06.259Z,100330.22
2022-11-14T06:47:10.135Z,100322.59
2022-11-14T06:48:13.708Z,100327.81
2022-11-14T06:49:20.739Z,100322.47
2022-11-14T06:50:32.879Z,100336.59
2022-11-14T06:51:37.018Z,100332.06
2022-11-14T06:52:44.382Z,100325.88
2022-11-14T06:53:54.202Z,100324.16
2022-11-14T06:55:00.405Z,100322.38
2022-11-14T06:56:16.038Z,100317.19
2022-11-14T06:57:26.896Z,100330.59
2022-11-14T06:58:41.708Z,100324.56
2022-11-14T06:59:48.579Z,100321.19
2022-11-14T07:00:54.527Z,100322.06
2022-11-14T07:01:58.359Z,100314.06
2022-11-14T07:03:03.662Z,100317.56
2022-11-14T07:04:11.011Z,100309.94
2022-11-14T07:05:15.824Z,100308.94
2022-11-14T07:06:30.618Z,100300.84
2022-11-14T07:07:39.124Z,100309.16
2022-11-14T07:08:44.406Z,100308.31
2022-11-14T07:09:49.234Z,100307.28
2022-11-14T07:10:54.171Z,100307.34
2022-11-14T07:11:58.386Z,100295.88
2022-11-14T07:13:04.952Z,100301.00
2022-11-14T07:14:10.641Z,100307.16
2022-11-14T07:15:15.722Z,100306.28
2022-11-14T07:16:20.763Z,100300.16
2022-11-14T07:17:29.877Z,100305.34
2022-11-14T07:18:34.964Z,100299.84
2022-11-14T07:19:39.057Z,100307.00
2022-11-14T07:20:46.611Z,100302.44
2022-11-14T07:21:52.674Z,100306.75
2022-11-14T07:22:57.303Z,100306.75
2022-11-14T07:24:01.351Z,100300.59
2022-11-14T07:25:05.445Z,100303.28
2022-11-14T07:26:12.042Z,100310.41
2022-11-14T07:27:24.252Z,100310.56
2022-11-14T07:28:29.657Z,100308.00
2022-11-14T07:29:34.348Z,100317.00
2022-11-14T07:30:37.943Z,100312.38
2022-11-14T07:31:41.878Z,100314.13
2022-11-14T07:32:46.046Z,100310.56
2022-11-14T07:33:49.924Z,100306.91
2022-11-14T07:34:57.858Z,100313.84
2022-11-14T07:36:08.112Z,100308.69
2022-11-14T07:37:24.844Z,100316.50
2022-11-14T07:38:32.128Z,100312.91
2022-11-14T07:39:38.087Z,100307.69
2022-11-14T07:40:42.598Z,100316.56
2022-11-14T07:41:46.432Z,100313.63
2022-11-14T07:42:53.406Z,100319.75
2022-11-14T07:43:58.488Z,100309.16
2022-11-14T07:45:02.515Z,100315.97
2022-11-14T07:46:16.021Z,100312.22
2022-11-14T07:47:20.112Z,100303.38
2022-11-14T07:48:23.764Z,100312.91
2022-11-14T07:49:27.349Z,100314.50
2022-11-14T07:50:34.220Z,100322.56
2022-11-14T07:51:41.498Z,100317.19
2022-11-14T07:52:56.033Z,100315.63
2022-11-14T07:54:00.051Z,100316.34
2022-11-14T07:55:05.183Z,100318.13
2022-11-14T07:56:11.515Z,100313.69
2022-11-14T07:57:16.078Z,100314.50
2022-11-14T07:58:20.055Z,100307.50
2022-11-14T07:59:23.619Z,100311.66
2022-11-14T08:00:28.517Z,100315.09
2022-11-14T08:01:35.308Z,100312.47
2022-11-14T08:02:39.059Z,100307.25
2022-11-14T08:03:46.514Z,100311.53
2022-11-14T08:04:53.796Z,100307.13
2022-11-14T08:06:17.859Z,100310.63
2022-11-14T08:07:22.622Z,100310.06
2022-11-14T08:08:29.333Z,100315.03
2022-11-14T08:09:34.546Z,100313.00
2022-11-14T08:10:38.745Z,100312.91
2022-11-14T08:11:51.506Z,100301.56
2022-11-14T08:13:30.394Z,100307.72
2022-11-14T08:14:30.147Z,100298.31
2022-11-14T08:15:43.330Z,100297.47
2022-11-14T08:16:51.578Z,100297.22
2022-11-14T08:18:03.014Z,100290.91
2022-11-14T08:19:07.712Z,100296.13
2022-11-14T08:20:12.006Z,100290.72
2022-11-14T08:21:15.597Z,100287.28
2022-11-14T08:22:19.088Z,100287.09
2022-11-14T08:23:22.674Z,100283.59
2022-11-14T08:24:26.173Z,100287.75
2022-11-14T08:25:30.152Z,100279.03
2022-11-14T08:26:34.503Z,100277.25
2022-11-14T08:27:38.175Z,100275.28
2022-11-14T08:28:41.742Z,100282.19
2022-11-14T08:29:45.361Z,100281.97
2022-11-14T08:30:49.085Z,100274.25
2022-11-14T08:31:57.105Z,100275.03
2022-11-14T08:33:06.056Z,100276.75
2022-11-14T08:34:10.051Z,100278.47
2022-11-14T08:35:14.084Z,100278.31
2022-11-14T08:36:18.050Z,100272.06
2022-11-14T08:37:22.408Z,100268.66
2022-11-14T08:38:26.809Z,100269.53
2022-11-14T08:39:30.577Z,100268.66
2022-11-14T08:40:35.062Z,100265.19
2022-11-14T08:41:40.297Z,100263.28
2022-11-14T08:42:45.576Z,100258.19
2022-11-14T08:43:51.969Z,100262.53
2022-11-14T08:45:00.096Z,100254.50
2022-11-14T08:46:06.794Z,100259.81
2022-11-14T08:47:12.355Z,100261.50
2022-11-14T08:48:17.805Z,100263.22
2022-11-14T08:49:21.701Z,100264.81
2022-11-14T08:50:25.669Z,100264.75
2022-11-14T08:51:34.037Z,100263.03
2022-11-14T08:52:41.025Z,100265.09
2022-11-14T08:53:48.611Z,100257.19
2022-11-14T08:55:14.383Z,100260.75
2022-11-14T08:56:30.418Z,100264.63
2022-11-14T08:57:37.414Z,100260.97
2022-11-14T08:58:56.151Z,100265.56
2022-11-14T09:00:06.462Z,100261.16
2022-11-14T09:01:11.735Z,100263.00
2022-11-14T09:02:15.887Z,100267.75
2022-11-14T09:03:19.466Z,100263.50
2022-11-14T09:04:26.617Z,100264.25
2022-11-14T09:05:38.209Z,100267.84
2022-11-14T09:06:42.928Z,100268.06
2022-11-14T09:07:51.158Z,100265.50
2022-11-14T09:09:00.392Z,100264.41
2022-11-14T09:10:09.279Z,100259.00
2022-11-14T09:11:19.054Z,100254.38
2022-11-14T09:12:28.216Z,100264.16
2022-11-14T09:13:36.608Z,100268.78
2022-11-14T09:14:41.149Z,100267.13
2022-11-14T09:15:46.430Z,100269.78
2022-11-14T09:16:51.738Z,100270.50
2022-11-14T09:17:58.987Z,100269.56
2022-11-14T09:19:03.335Z,100267.13
2022-11-14T09:20:11.809Z,100267.13
2022-11-14T09:21:17.004Z,100272.34
2022-11-14T09:22:25.257Z,100268.72
2022-11-14T09:23:38.088Z,100264.47
2022-11-14T09:24:46.964Z,100266.91
2022-11-14T09:25:56.366Z,100267.75
2022-11-14T09:27:02.444Z,100266.91
2022-11-14T09:28:09.284Z,100261.38
2022-11-14T09:29:14.497Z,100267.50
2022-11-14T09:30:18.590Z,100256.97
2022-11-14T09:31:22.567Z,100260.34
2022-11-14T09:32:26.725Z,100263.72
2022-11-14T09:33:31.444Z,100254.28
2022-11-14T09:34:38.876Z,100259.56
2022-11-14T09:35:45.892Z,100258.44
2022-11-14T09:36:50.037Z,100259.34
2022-11-14T09:38:15.706Z,100250.31
2022-11-14T09:39:19.778Z,100252.81
2022-11-14T09:40:23.330Z,100255.59
2022-11-14T09:41:54.532Z,100253.88
2022-11-14T09:43:39.946Z,100248.00
2022-11-14T09:44:58.287Z,100252.50
2022-11-14T09:46:04.278Z,100246.53
2022-11-14T09:47:20.670Z,100247.47
2022-11-14T09:48:31.982Z,100250.97
2022-11-14T09:49:44.871Z,100255.13
2022-11-14T09:51:10.782Z,100244.91
2022-11-14T09:52:46.322Z,100244.59
2022-11-14T09:54:25.118Z,100248.84
2022-11-14T09:55:36.616Z,100244.19
2022-11-14T09:56:43.749Z,100237.88
2022-11-14T09:57:48.092Z,100240.78
2022-11-14T09:58:56.642Z,100243.31
2022-11-14T10:00:01.695Z,100247.81
2022-11-14T10:01:54.026Z,100241.72
2022-11-14T10:03:36.568Z,100236.97
2022-11-14T10:05:31.796Z,100238.56
2022-11-14T10:07:40.675Z,100234.06
2022-11-14T10:09:31.881Z,100235.06
2022-11-14T10:11:10.813Z,100233.94
2022-11-14T10:12:23.223Z,100233.03
2022-11-14T10:13:50.340Z,100231.34
2022-11-14T10:15:01.738Z,100229.63
2022-11-14T10:16:48.142Z,100231.41
2022-11-14T10:18:09.306Z,100231.03
2022-11-14T10:19:58.151Z,100234.47
2022-11-14T10:21:28.722Z,100229.72
2022-11-14T10:23:01.183Z,100227.81
2022-11-14T10:24:44.854Z,100227.66
2022-11-14T10:26:06.012Z,100223.22
2022-11-14T10:27:41.625Z,100224.09
2022-11-14T10:29:10.702Z,100219.91
2022-11-14T10:30:20.197Z,100221.78
2022-11-14T10:31:57.540Z,100219.06
2022-11-14T10:33:32.312Z,100209.41
2022-11-14T10:35:00.274Z,100202.47
2022-11-14T10:36:49.292Z,100201.88
2022-11-14T10:38:39.422Z,100199.16
2022-11-14T10:40:04.044Z,100205.78
2022-11-14T10:41:19.250Z,100199.50
2022-11-14T10:42:53.497Z,100197.63
2022-11-14T10:44:02.148Z,100193.88
2022-11-14T10:45:33.746Z,100185.28
2022-11-14T10:46:55.942Z,100194.28
2022-11-14T10:48:36.734Z,100189.44
2022-11-14T10:49:51.110Z,100192.22
2022-11-14T10:51:08.791Z,100195.28
2022-11-14T10:52:21.981Z,100189.88
2022-11-14T10:54:16.002Z,100190.06
2022-11-14T10:55:37.176Z,100192.72
2022-11-14T10:56:56.506Z,100193.72
2022-11-14T10:58:04.378Z,100190.38
2022-11-14T10:59:27.082Z,100190.38
2022-11-14T11:00:35.810Z,100189.53
2022-11-14T11:01:55.035Z,100185.00
2022-11-14T11:03:09.503Z,100182.16
2022-11-14T11:04:37.174Z,100182.16
2022-11-14T11:06:03.323Z,100178.72
2022-11-14T11:07:10.392Z,100178.47
2022-11-14T11:08:44.720Z,100186.47
2022-11-14T11:10:24.818Z,100177.00
2022-11-14T11:11:32.607Z,100176.94
2022-11-14T11:12:54.473Z,100176.25
2022-11-14T11:14:23.086Z,100172.03
2022-11-14T11:16:21.263Z,100170.13
2022-11-14T11:17:38.800Z,100168.16
2022-11-14T11:18:48.563Z,100166.19
2022-11-14T11:21:03.889Z,100163.56
2022-11-14T11:22:38.903Z,100164.81
2022-11-14T11:23:57.737Z,100164.56
2022-11-14T11:25:01.454Z,100169.78
2022-11-14T11:26:19.016Z,100167.16
2022-11-14T11:27:29.707Z,100165.19
2022-11-14T11:28:36.589Z,100170.31
2022-11-14T11:29:40.335Z,100156.94
2022-11-14T11:31:01.135Z,100153.38
2022-11-14T11:32:05.682Z,100153.38
2022-11-14T11:33:24.182Z,100154.81
2022-11-14T11:34:32.884Z,100154.69
2022-11-14T11:35:37.783Z,100159.78
2022-11-14T11:36:54.395Z,100159.00
2022-11-14T11:38:03.016Z,100158.13
2022-11-14T11:39:17.596Z,100156.28
2022-11-14T11:40:27.040Z,100153.63
2022-11-14T11:42:09.244Z,100150.00
2022-11-14T11:43:42.096Z,100143.91
2022-11-14T11:44:54.167Z,100149.09
2022-11-14T11:46:31.981Z,100145.44
2022-11-14T11:47:43.623Z,100145.38
2022-11-14T11:49:03.559Z,100142.53
2022-11-14T11:50:21.451Z,100133.47
2022-11-14T11:51:27.942Z,100143.84
2022-11-14T11:53:12.299Z,100134.78
2022-11-14T11:54:46.034Z,100133.34
2022-11-14T11:56:28.882Z,100131.69
2022-11-14T11:58:24.738Z,100136.38
2022-11-14T11:59:59.382Z,100129.09
2022-11-14T12:01:13.031Z,100137.03
2022-11-14T12:02:31.836Z,100134.25
2022-11-14T12:04:08.551Z,100124.47
2022-11-14T12:05:46.529Z,100130.50
2022-11-14T12:07:13.305Z,100131.09
2022-11-14T12:08:59.784Z,100132.66
2022-11-14T12:10:15.687Z,100130.66
2022-11-14T12:11:25.502Z,100134.38
2022-11-14T12:12:44.326Z,100128.38
2022-11-14T12:14:15.797Z,100125.06
2022-11-14T12:15:54.528Z,100122.50
2022-11-14T12:17:20.415Z,100117.31
2022-11-14T12:18:43.911Z,100122.06
2022-11-14T12:20:51.344Z,100120.91
2022-11-14T12:22:29.330Z,100118.41
2022-11-14T12:23:51.160Z,100117.53
2022-11-14T12:25:40.583Z,100117.53
2022-11-14T12:27:06.254Z,100112.91
2022-11-14T12:28:40.630Z,100103.31
2022-11-14T12:30:14.382Z,100109.34
2022-11-14T12:31:36.988Z,100103.81
2022-11-14T12:32:56.030Z,100102.34
2022-11-14T12:34:30.035Z,100098.19
2022-11-14T12:35:37.306Z,100095.38
2022-11-14T12:36:58.197Z,100098.97
2022-11-14T12:38:21.001Z,100100.47
2022-11-14T12:39:29.063Z,100098.09
2022-11-14T12:40:34.214Z,100095.38
2022-11-14T12:41:41.001Z,100096.03
2022-11-14T12:44:33.803Z,100094.97
2022-11-14T12:45:44.489Z,100087.03
2022-11-14T12:47:09.687Z,100086.75
2022-11-14T12:48:33.950Z,100092.19
2022-11-14T12:49:52.827Z,100091.34
2022-11-14T12:50:59.707Z,100081.69
2022-11-14T12:52:03.560Z,100078.81
2022-11-14T12:53:36.190Z,100080.50
2022-11-14T12:54:49.590Z,100077.78
2022-11-14T12:56:09.312Z,100074.03
2022-11-14T12:57:50.288Z,100074.19
2022-11-14T12:59:16.926Z,100078.53
2022-11-14T13:00:24.192Z,100077.19
2022-11-14T13:01:53.058Z,100076.19
2022-11-14T13:03:48.432Z,100072.47
2022-11-14T13:05:52.182Z,100072.56
2022-11-14T13:07:31.317Z,100069.06
2022-11-14T13:09:25.533Z,100076.91
2022-11-14T13:10:44.488Z,100071.03
2022-11-14T13:12:09.033Z,100077.25
2022-11-14T13:13:36.347Z,100061.47
2022-11-14T13:15:14.867Z,100070.25
2022-11-14T13:16:49.334Z,100060.75
2022-11-14T13:18:33.061Z,100069.41
2022-11-14T13:20:05.945Z,100068.66
2022-11-14T13:21:48.732Z,100068.53
2022-11-14T13:22:52.448Z,100064.13
2022-11-14T13:23:58.043Z,100063.19
2022-11-14T13:25:06.131Z,100063.09
2022-11-14T13:26:15.327Z,100064.13
2022-11-14T13:28:06.000Z,100068.25
2022-11-14T13:29:05.719Z,100063.75
2022-11-14T13:30:09.962Z,100060.09
2022-11-14T13:31:18.813Z,100051.03
2022-11-14T13:32:47.741Z,100049.09
2022-11-14T13:34:01.102Z,100045.75
2022-11-14T13:37:17.685Z,100041.94
2022-11-14T13:41:48.298Z,100049.00
2022-11-14T13:43:17.822Z,100046.28
2022-11-14T13:44:55.889Z,100043.09
2022-11-14T13:46:22.532Z,100040.47
2022-11-14T13:48:47.852Z,100037.81
2022-11-14T13:51:48.732Z,100038.34
2022-11-14T13:52:26.721Z,100030.31
2022-11-14T13:53:43.483Z,100029.31
2022-11-14T13:54:52.970Z,100036.34
2022-11-14T13:56:26.997Z,100037.91
2022-11-14T13:58:08.252Z,100036.19
2022-11-14T13:59:41.688Z,100029.09
2022-11-14T14:01:19.373Z,100031.59
2022-11-14T14:02:53.387Z,100030.91
2022-11-14T14:04:34.672Z,100030.31
2022-11-14T14:05:47.199Z,100022.38
2022-11-14T14:06:51.061Z,100023.25
2022-11-14T14:08:33.865Z,100024.22
2022-11-14T14:09:54.771Z,100025.13
2022-11-14T14:11:42.839Z,100021.72
2022-11-14T14:13:16.504Z,100019.00
2022-11-14T14:14:42.312Z,100026.59
2022-11-14T14:16:05.433Z,100009.28
2022-11-14T14:17:20.047Z,100012.72
2022-11-14T14:18:51.721Z,100013.63
2022-11-14T14:20:36.871Z,100011.00
2022-11-14T14:21:57.929Z,100003.06
2022-11-14T14:23:37.356Z,100010.13
2022-11-14T14:25:23.488Z,100016.00
2022-11-14T14:27:35.687Z,100014.28
2022-11-14T14:29:55.694Z,100007.91
2022-11-14T14:31:28.035Z,100012.34
2022-11-14T14:33:18.205Z,100000.28
2022-11-14T14:34:31.828Z,99995.91
2022-11-14T14:35:40.913Z,99996.72
2022-11-14T14:36:55.476Z,99996.56
2022-11-14T14:38:02.598Z,99994.06
2022-11-14T14:39:28.615Z,99985.41
2022-11-14T14:40:39.158Z,99984.25
2022-11-14T14:41:50.897Z,99980.97
2022-11-14T14:42:58.010Z,99987.13
2022-11-14T14:44:02.412Z,99986.19
2022-11-14T14:45:19.626Z,99985.50
2022-11-14T14:46:34.258Z,99983.97
2022-11-14T14:47:53.869Z,99995.56
2022-11-14T14:49:06.748Z,99987.56
2022-11-14T14:50:30.832Z,99990.34
2022-11-14T14:51:43.602Z,99986.78
2022-11-14T14:53:01.023Z,99992.06
2022-11-14T14:54:08.134Z,99989.56
2022-11-14T14:55:34.919Z,99987.72
2022-11-14T14:56:40.861Z,99976.41
2022-11-14T14:57:46.145Z,99981.97
2022-11-14T14:58:50.342Z,99981.00
2022-11-14T15:00:29.883Z,99975.63
2022-11-14T15:01:37.206Z,99975.44
2022-11-14T15:03:12.516Z,99976.22
2022-11-14T15:04:37.658Z,99977.72
2022-11-14T15:05:41.359Z,99977.72
2022-11-14T15:07:06.138Z,99976.69
2022-11-14T15:09:32.579Z,99977.63